Iowa Falls, Iowa
Current Conditions -  °F | °C
As of 9:35 PM on Saturday 25 Oct 2014 (Local Time) from KIFA Reporting Station
Clear Clear  
Wind Chill: 46°   Ceiling: Unl
Heat Index: 46°   Visibility: 10mi
Dew Point: 36°   Wind: 0mph
Humidity: 68%   Direction: NA
Pressure: 30.08"   Gusts: NA
Location:  42.52°N, 93.26°W
Report Text: KIFA 260235Z AUTO 00000KT 10SM CLR 08/02 A3008 RMK AO2 T00760020
Loading
Personal Weather Stations






























Interactive Weather Map New forecast layout! Learn more

10-Day Weather Forecast

Advertisements
Track Severe Weather on mobile